Time;durP1;ratioP1;P1;durP2;ratioP2;P2;SDS_P1;SDS_P2;PMS_P1;PMS_P2;Temp;Humidity;BMP_temperature;BMP_pressure;BME280_temperature;BME280_humidity;BME280_pressure;Samples;Min_cycle;Max_cycle;Signal;HPM_P1;HPM_P2
2023/06/24 00:01:03;;;;;;;;;;;22.70;59.00;;;;;;5050357;28;19937;-69
2023/06/24 00:03:29;;;;;;;;;;;22.60;59.10;;;;;;5059030;28;19986;-70
2023/06/24 00:05:57;;;;;;;;;;;22.60;59.10;;;;;;5056205;28;19933;-70
2023/06/24 00:08:31;;;;;;;;;;;22.60;59.30;;;;;;5065625;28;19928;-69
2023/06/24 00:10:58;;;;;;;;;;;22.60;59.40;;;;;;5054127;28;19974;-69
2023/06/24 00:13:24;;;;;;;;;;;22.50;59.40;;;;;;5048587;28;20383;-70
2023/06/24 00:15:51;;;;;;;;;;;22.50;59.50;;;;;;5061087;28;19929;-70
2023/06/24 00:18:17;;;;;;;;;;;22.40;59.60;;;;;;5048634;28;19979;-70
2023/06/24 00:20:44;;;;;;;;;;;22.40;59.70;;;;;;5047995;28;19932;-70
2023/06/24 00:23:14;;;;;;;;;;;22.40;59.90;;;;;;5060049;28;19940;-70
2023/06/24 00:25:42;;;;;;;;;;;22.30;59.80;;;;;;5053762;28;19975;-70
2023/06/24 00:28:08;;;;;;;;;;;22.30;59.90;;;;;;5056026;28;19929;-70
2023/06/24 00:30:35;;;;;;;;;;;22.30;59.90;;;;;;5057820;28;19979;-70
2023/06/24 00:33:02;;;;;;;;;;;22.20;60.80;;;;;;5059402;28;21808;-70
2023/06/24 00:35:29;;;;;;;;;;;22.20;60.10;;;;;;5056661;28;20785;-71
2023/06/24 00:37:57;;;;;;;;;;;22.20;60.20;;;;;;5054335;28;19952;-69
2023/06/24 00:40:25;;;;;;;;;;;22.10;60.30;;;;;;5054917;28;19938;-70
2023/06/24 00:42:52;;;;;;;;;;;22.10;60.50;;;;;;5045286;28;19932;-70
2023/06/24 00:45:19;;;;;;;;;;;22.10;60.50;;;;;;5059822;28;19936;-69
2023/06/24 00:47:46;;;;;;;;;;;22.00;60.50;;;;;;5048211;28;19929;-70
2023/06/24 00:50:12;;;;;;;;;;;22.00;60.60;;;;;;5053961;28;20361;-70
2023/06/24 00:52:42;;;;;;;;;;;22.00;60.60;;;;;;5051496;28;19929;-69
2023/06/24 00:55:09;;;;;;;;;;;22.00;60.70;;;;;;5051184;28;19960;-69
2023/06/24 00:57:38;;;;;;;;;;;21.90;60.80;;;;;;5054280;28;19928;-70
2023/06/24 01:00:09;;;;;;;;;;;21.90;60.90;;;;;;5058150;28;20455;-70
2023/06/24 01:02:36;;;;;;;;;;;21.90;61.00;;;;;;5064541;28;19932;-70
2023/06/24 01:05:05;;;;;;;;;;;21.80;61.00;;;;;;5055777;28;20015;-70
2023/06/24 01:07:32;;;;;;;;;;;21.80;61.10;;;;;;5061097;28;19975;-69
2023/06/24 01:10:00;;;;;;;;;;;21.80;61.20;;;;;;5061217;28;19932;-70
2023/06/24 01:12:26;;;;;;;;;;;21.70;61.20;;;;;;5059862;28;19928;-70
2023/06/24 01:14:55;;;;;;;;;;;21.70;61.30;;;;;;5055864;28;19928;-70
2023/06/24 01:17:24;;;;;;;;;;;21.60;61.20;;;;;;5053294;28;19929;-70
2023/06/24 01:20:03;;;;;;;;;;;21.60;61.40;;;;;;5052466;28;19928;-70
2023/06/24 01:22:46;;;;;;;;;;;21.60;61.50;;;;;;5052492;28;20271;-69
2023/06/24 01:25:18;;;;;;;;;;;21.60;61.60;;;;;;5052573;28;19929;-70
2023/06/24 01:27:58;;;;;;;;;;;21.50;61.60;;;;;;5057514;28;19939;-69
2023/06/24 01:30:37;;;;;;;;;;;21.50;61.70;;;;;;5054518;28;20534;-69
2023/06/24 01:33:08;;;;;;;;;;;21.50;61.70;;;;;;5051848;28;20390;-69
2023/06/24 01:35:36;;;;;;;;;;;21.50;61.80;;;;;;5057608;28;19947;-70
2023/06/24 01:38:07;;;;;;;;;;;21.40;61.80;;;;;;5056736;28;20460;-69
2023/06/24 01:40:36;;;;;;;;;;;21.40;61.90;;;;;;5054528;28;19932;-70
2023/06/24 01:43:05;;;;;;;;;;;21.40;62.00;;;;;;5061190;28;19932;-70
2023/06/24 01:45:33;;;;;;;;;;;21.30;61.90;;;;;;5047192;28;20015;-70
2023/06/24 01:48:01;;;;;;;;;;;21.30;62.10;;;;;;5056247;28;20358;-70
2023/06/24 01:50:31;;;;;;;;;;;21.30;62.10;;;;;;5054067;28;20043;-70
2023/06/24 01:52:57;;;;;;;;;;;21.30;62.20;;;;;;5051331;28;20029;-70
2023/06/24 01:55:25;;;;;;;;;;;21.20;62.20;;;;;;5046368;28;20469;-69
2023/06/24 01:57:52;;;;;;;;;;;21.20;62.30;;;;;;5056434;28;20658;-70
2023/06/24 02:00:19;;;;;;;;;;;21.20;62.30;;;;;;5052219;28;19928;-70
2023/06/24 02:02:46;;;;;;;;;;;21.10;62.40;;;;;;5057774;28;19929;-70
2023/06/24 02:05:13;;;;;;;;;;;21.10;62.50;;;;;;5055863;28;19925;-69
2023/06/24 02:07:43;;;;;;;;;;;21.10;62.40;;;;;;5055710;28;19967;-70
2023/06/24 02:10:10;;;;;;;;;;;21.00;62.40;;;;;;5054228;28;19928;-70
2023/06/24 02:12:36;;;;;;;;;;;21.00;62.50;;;;;;5051130;28;19928;-69
2023/06/24 02:15:06;;;;;;;;;;;21.00;62.50;;;;;;5060947;28;19932;-70
2023/06/24 02:17:33;;;;;;;;;;;20.90;62.50;;;;;;5051843;28;19958;-70
2023/06/24 02:20:00;;;;;;;;;;;21.00;62.60;;;;;;5047238;28;19935;-70
2023/06/24 02:22:27;;;;;;;;;;;20.90;62.60;;;;;;5056435;28;19929;-70
2023/06/24 02:24:56;;;;;;;;;;;20.90;62.70;;;;;;5055107;28;19928;-70
2023/06/24 02:27:23;;;;;;;;;;;20.90;62.70;;;;;;5052993;28;19933;-70
2023/06/24 02:29:50;;;;;;;;;;;20.90;62.80;;;;;;5052186;28;19983;-69
2023/06/24 02:32:17;;;;;;;;;;;20.80;62.70;;;;;;5060787;28;19929;-70
2023/06/24 02:34:43;;;;;;;;;;;20.80;62.80;;;;;;5059304;28;19978;-70
2023/06/24 02:37:10;;;;;;;;;;;20.80;62.80;;;;;;5054563;28;20325;-69
2023/06/24 02:39:39;;;;;;;;;;;20.80;62.90;;;;;;5060333;28;20747;-70
2023/06/24 02:42:07;;;;;;;;;;;20.70;62.90;;;;;;5055933;28;20566;-69
2023/06/24 02:44:33;;;;;;;;;;;20.70;62.90;;;;;;5058173;28;20366;-70
2023/06/24 02:47:00;;;;;;;;;;;20.70;63.00;;;;;;5051780;28;19928;-69
2023/06/24 02:49:28;;;;;;;;;;;20.60;63.20;;;;;;5056054;28;20442;-69
2023/06/24 02:51:54;;;;;;;;;;;20.60;63.00;;;;;;5048980;28;20019;-69
2023/06/24 02:54:21;;;;;;;;;;;20.60;63.20;;;;;;5050715;28;19935;-71
2023/06/24 02:56:48;;;;;;;;;;;20.60;63.10;;;;;;5058015;28;19929;-70
2023/06/24 02:59:16;;;;;;;;;;;20.50;63.10;;;;;;5057491;28;19936;-69
2023/06/24 03:01:44;;;;;;;;;;;20.50;63.10;;;;;;5051601;28;19958;-70
2023/06/24 03:04:11;;;;;;;;;;;20.50;63.20;;;;;;5059467;28;19928;-69
2023/06/24 03:06:39;;;;;;;;;;;20.50;63.30;;;;;;5052989;28;19932;-70
2023/06/24 03:09:07;;;;;;;;;;;20.40;63.30;;;;;;5048742;28;20002;-69
2023/06/24 03:11:40;;;;;;;;;;;20.40;63.30;;;;;;5056967;28;19928;-69
2023/06/24 03:14:07;;;;;;;;;;;20.40;63.40;;;;;;5051625;28;19929;-69
2023/06/24 03:16:35;;;;;;;;;;;20.40;63.40;;;;;;5047487;28;19933;-69
2023/06/24 03:19:02;;;;;;;;;;;20.40;63.50;;;;;;5052187;28;19929;-70
2023/06/24 03:21:29;;;;;;;;;;;20.30;63.50;;;;;;5048964;28;19936;-69
2023/06/24 03:23:56;;;;;;;;;;;20.30;63.60;;;;;;5059588;28;19939;-69
2023/06/24 03:26:23;;;;;;;;;;;20.30;63.70;;;;;;5055634;28;20394;-70
2023/06/24 03:28:49;;;;;;;;;;;20.30;63.70;;;;;;5052700;28;19986;-69
2023/06/24 03:31:16;;;;;;;;;;;20.20;63.60;;;;;;5052366;28;19936;-69
2023/06/24 03:33:45;;;;;;;;;;;20.20;63.60;;;;;;5060072;28;19928;-69
2023/06/24 03:36:11;;;;;;;;;;;20.20;63.80;;;;;;5055072;28;19928;-70
2023/06/24 03:38:38;;;;;;;;;;;20.20;63.90;;;;;;5055651;28;19932;-70
2023/06/24 03:41:05;;;;;;;;;;;20.20;63.90;;;;;;5053573;28;20452;-70
2023/06/24 03:43:31;;;;;;;;;;;20.10;63.80;;;;;;5052609;28;19936;-70
2023/06/24 03:45:58;;;;;;;;;;;20.10;64.00;;;;;;5054609;28;20251;-70
2023/06/24 03:48:24;;;;;;;;;;;20.10;63.90;;;;;;5048544;28;20006;-69
2023/06/24 03:50:52;;;;;;;;;;;20.10;64.00;;;;;;5044835;28;20239;-69
2023/06/24 03:53:18;;;;;;;;;;;20.10;64.10;;;;;;5053245;28;19986;-69
2023/06/24 03:55:45;;;;;;;;;;;20.10;64.10;;;;;;5043855;28;19936;-70
2023/06/24 03:58:13;;;;;;;;;;;20.00;64.10;;;;;;5052422;28;20030;-69
2023/06/24 04:00:40;;;;;;;;;;;20.00;64.20;;;;;;5055577;28;20042;-70
2023/06/24 04:03:07;;;;;;;;;;;20.00;64.20;;;;;;5049491;28;20031;-69
2023/06/24 04:05:33;;;;;;;;;;;19.90;64.20;;;;;;5056947;28;19944;-70
2023/06/24 04:08:05;;;;;;;;;;;19.90;64.30;;;;;;5053242;28;20164;-70
2023/06/24 04:10:32;;;;;;;;;;;19.90;64.30;;;;;;5055329;28;20437;-70
2023/06/24 04:12:58;;;;;;;;;;;19.90;64.40;;;;;;5054195;28;19928;-70
2023/06/24 04:15:25;;;;;;;;;;;19.90;64.40;;;;;;5051087;28;19932;-70
2023/06/24 04:17:51;;;;;;;;;;;19.80;64.40;;;;;;5047595;28;19945;-71
2023/06/24 04:20:18;;;;;;;;;;;19.80;64.50;;;;;;5052823;28;19933;-69
2023/06/24 04:22:44;;;;;;;;;;;19.80;64.60;;;;;;5051034;28;20327;-69
2023/06/24 04:25:12;;;;;;;;;;;19.80;64.70;;;;;;5052435;28;19935;-70
2023/06/24 04:27:39;;;;;;;;;;;19.80;64.80;;;;;;5057275;28;19936;-70
2023/06/24 04:30:06;;;;;;;;;;;19.70;64.80;;;;;;5050009;28;19929;-71
2023/06/24 04:32:32;;;;;;;;;;;19.70;65.00;;;;;;5055774;28;20302;-69
2023/06/24 04:35:00;;;;;;;;;;;19.70;65.10;;;;;;5063727;28;19928;-68
2023/06/24 04:37:27;;;;;;;;;;;19.70;65.20;;;;;;5056199;28;20618;-70
2023/06/24 04:39:53;;;;;;;;;;;19.70;65.30;;;;;;5052626;28;19929;-70
2023/06/24 04:42:22;;;;;;;;;;;19.60;65.40;;;;;;5051938;28;20000;-70
2023/06/24 04:44:51;;;;;;;;;;;19.60;65.50;;;;;;5051415;28;20612;-70
2023/06/24 04:47:17;;;;;;;;;;;19.60;65.50;;;;;;5051872;28;19932;-70
2023/06/24 04:49:44;;;;;;;;;;;19.60;65.60;;;;;;5057749;28;19928;-69
2023/06/24 04:52:11;;;;;;;;;;;19.60;65.80;;;;;;5058058;28;20567;-70
2023/06/24 04:54:38;;;;;;;;;;;19.60;65.90;;;;;;5057783;28;19954;-69
2023/06/24 04:57:07;;;;;;;;;;;19.60;66.00;;;;;;5050105;28;19958;-70
2023/06/24 04:59:36;;;;;;;;;;;19.50;66.10;;;;;;5056997;28;19936;-69
2023/06/24 05:02:02;;;;;;;;;;;19.50;66.10;;;;;;5060844;28;19951;-70
2023/06/24 05:04:29;;;;;;;;;;;19.50;66.30;;;;;;5058203;28;19940;-69
2023/06/24 05:06:55;;;;;;;;;;;19.50;66.40;;;;;;5056199;28;20362;-69
2023/06/24 05:09:22;;;;;;;;;;;19.50;66.50;;;;;;5056972;28;19928;-70
2023/06/24 05:11:49;;;;;;;;;;;19.40;66.60;;;;;;5046875;28;20405;-69
2023/06/24 05:14:15;;;;;;;;;;;19.40;66.60;;;;;;5057460;28;19934;-69
2023/06/24 05:16:45;;;;;;;;;;;19.40;66.80;;;;;;5061533;28;20548;-69
2023/06/24 05:19:11;;;;;;;;;;;19.40;67.50;;;;;;5058805;28;19928;-69
2023/06/24 05:21:38;;;;;;;;;;;19.40;66.80;;;;;;5054193;28;19956;-69
2023/06/24 05:24:05;;;;;;;;;;;19.40;66.80;;;;;;5055432;28;19929;-69
2023/06/24 05:26:31;;;;;;;;;;;19.40;66.80;;;;;;5051165;28;19929;-70
2023/06/24 05:28:58;;;;;;;;;;;19.40;66.90;;;;;;5057048;28;19935;-70
2023/06/24 05:31:24;;;;;;;;;;;19.40;66.90;;;;;;5057013;28;19932;-70
2023/06/24 05:33:52;;;;;;;;;;;19.40;67.00;;;;;;5059499;28;20724;-70
2023/06/24 05:36:19;;;;;;;;;;;19.40;67.00;;;;;;5057913;28;19928;-70
2023/06/24 05:38:48;;;;;;;;;;;19.40;67.10;;;;;;5058288;28;21258;-70
2023/06/24 05:41:15;;;;;;;;;;;19.40;67.10;;;;;;5058080;28;19929;-69
2023/06/24 05:43:43;;;;;;;;;;;19.40;67.10;;;;;;5058849;28;19929;-69
2023/06/24 05:46:10;;;;;;;;;;;19.40;67.10;;;;;;5050831;28;19933;-70
2023/06/24 05:48:36;;;;;;;;;;;19.40;67.10;;;;;;5054593;28;19932;-69
2023/06/24 05:51:04;;;;;;;;;;;19.40;67.20;;;;;;5055632;28;20446;-69
2023/06/24 05:53:31;;;;;;;;;;;19.40;67.30;;;;;;5061735;28;20637;-69
2023/06/24 05:55:57;;;;;;;;;;;19.40;67.30;;;;;;5055868;28;19928;-70
2023/06/24 05:58:24;;;;;;;;;;;19.40;67.30;;;;;;5059945;28;19929;-69
2023/06/24 06:00:50;;;;;;;;;;;19.50;67.40;;;;;;5050524;28;19934;-70
2023/06/24 06:03:17;;;;;;;;;;;19.50;67.40;;;;;;5059291;28;20347;-70
2023/06/24 06:05:44;;;;;;;;;;;19.50;67.50;;;;;;5052068;28;19928;-70
2023/06/24 06:08:12;;;;;;;;;;;19.50;67.50;;;;;;5051995;28;20624;-70
2023/06/24 06:10:38;;;;;;;;;;;19.50;67.50;;;;;;5055268;28;19944;-69
2023/06/24 06:13:05;;;;;;;;;;;19.50;67.50;;;;;;5058574;28;19936;-69
2023/06/24 06:15:31;;;;;;;;;;;19.50;67.70;;;;;;5057294;28;19928;-70
2023/06/24 06:17:58;;;;;;;;;;;19.50;67.70;;;;;;5054011;28;19935;-70
2023/06/24 06:20:25;;;;;;;;;;;19.50;67.80;;;;;;5056812;28;20637;-69
2023/06/24 06:22:51;;;;;;;;;;;19.50;67.80;;;;;;5060703;28;20422;-69
2023/06/24 06:25:19;;;;;;;;;;;19.50;67.90;;;;;;5053987;28;19935;-69
2023/06/24 06:27:46;;;;;;;;;;;19.60;68.20;;;;;;5056505;28;19936;-69
2023/06/24 06:30:13;;;;;;;;;;;19.60;68.00;;;;;;5051924;28;19929;-69
2023/06/24 06:32:40;;;;;;;;;;;19.60;68.00;;;;;;5056895;28;19935;-69
2023/06/24 06:35:07;;;;;;;;;;;19.60;68.00;;;;;;5056298;28;20560;-69
2023/06/24 06:37:33;;;;;;;;;;;19.60;68.10;;;;;;5055167;28;19928;-69
2023/06/24 06:40:00;;;;;;;;;;;19.70;68.00;;;;;;5059283;28;19928;-69
2023/06/24 06:42:28;;;;;;;;;;;19.70;68.00;;;;;;5056239;28;19924;-69
2023/06/24 06:44:54;;;;;;;;;;;19.70;68.00;;;;;;5054143;28;19928;-69
2023/06/24 06:47:21;;;;;;;;;;;19.70;67.90;;;;;;5054593;28;19929;-70
2023/06/24 06:49:47;;;;;;;;;;;19.70;68.00;;;;;;5057903;28;19932;-69
2023/06/24 06:52:14;;;;;;;;;;;19.70;68.00;;;;;;5059847;28;19989;-69
2023/06/24 06:54:41;;;;;;;;;;;19.80;68.00;;;;;;5057505;28;20019;-69
2023/06/24 06:57:07;;;;;;;;;;;19.80;68.00;;;;;;5051288;28;20889;-70
2023/06/24 06:59:35;;;;;;;;;;;19.80;68.10;;;;;;5061203;28;19932;-70
2023/06/24 07:02:01;;;;;;;;;;;19.80;68.50;;;;;;5048451;28;19936;-70
2023/06/24 07:04:28;;;;;;;;;;;19.80;68.10;;;;;;5056368;28;19990;-69
2023/06/24 07:06:54;;;;;;;;;;;19.90;68.30;;;;;;5053735;28;20821;-70
2023/06/24 07:09:21;;;;;;;;;;;19.90;68.20;;;;;;5055077;28;19932;-69
2023/06/24 07:11:48;;;;;;;;;;;19.90;68.30;;;;;;5052075;28;19932;-69
2023/06/24 07:14:14;;;;;;;;;;;19.90;68.00;;;;;;5058129;28;19928;-69
2023/06/24 07:16:42;;;;;;;;;;;20.00;68.00;;;;;;5057836;28;19925;-69
2023/06/24 07:19:09;;;;;;;;;;;20.00;67.80;;;;;;5051026;28;19960;-69
2023/06/24 07:21:35;;;;;;;;;;;20.00;67.90;;;;;;5051059;28;20024;-69
2023/06/24 07:24:02;;;;;;;;;;;20.00;67.90;;;;;;5052688;28;20586;-69
2023/06/24 07:26:30;;;;;;;;;;;20.10;68.10;;;;;;5055252;28;19936;-70
2023/06/24 07:28:57;;;;;;;;;;;20.10;68.30;;;;;;5047815;28;20007;-69
2023/06/24 07:31:23;;;;;;;;;;;20.10;68.60;;;;;;5050933;28;19978;-69
2023/06/24 07:33:51;;;;;;;;;;;20.10;68.70;;;;;;5057003;28;20446;-69
2023/06/24 07:36:18;;;;;;;;;;;20.20;68.20;;;;;;5052786;28;19986;-70
2023/06/24 07:38:45;;;;;;;;;;;20.20;68.10;;;;;;5056920;28;19928;-69
2023/06/24 07:41:11;;;;;;;;;;;20.20;68.10;;;;;;5056626;28;20718;-69
2023/06/24 07:43:38;;;;;;;;;;;20.20;68.00;;;;;;5055473;28;19932;-69
2023/06/24 07:46:05;;;;;;;;;;;20.30;68.20;;;;;;5052244;28;19929;-69
2023/06/24 07:48:32;;;;;;;;;;;20.30;68.50;;;;;;5060148;28;19935;-69
2023/06/24 07:50:59;;;;;;;;;;;20.30;68.50;;;;;;5056774;28;19932;-71
2023/06/24 07:53:26;;;;;;;;;;;20.30;68.50;;;;;;5053649;28;19953;-69
2023/06/24 07:55:52;;;;;;;;;;;20.40;68.50;;;;;;5055367;28;20398;-69
2023/06/24 07:58:19;;;;;;;;;;;20.40;68.80;;;;;;5051312;28;19933;-69
2023/06/24 08:00:46;;;;;;;;;;;20.40;68.50;;;;;;5051877;28;19928;-69
2023/06/24 08:03:13;;;;;;;;;;;20.50;68.30;;;;;;5058210;28;20614;-69
2023/06/24 08:05:39;;;;;;;;;;;20.50;68.10;;;;;;5057429;28;20477;-69
2023/06/24 08:08:08;;;;;;;;;;;20.60;67.80;;;;;;5053850;28;20539;-69
2023/06/24 08:10:35;;;;;;;;;;;20.60;67.70;;;;;;5057822;28;19955;-69
2023/06/24 08:13:01;;;;;;;;;;;20.60;67.50;;;;;;5055664;28;19928;-70
2023/06/24 08:15:28;;;;;;;;;;;20.70;67.40;;;;;;5057736;28;19935;-70
2023/06/24 08:17:55;;;;;;;;;;;20.70;67.10;;;;;;5052572;28;19929;-70
2023/06/24 08:20:21;;;;;;;;;;;20.70;66.70;;;;;;5052932;28;19936;-69
2023/06/24 08:22:48;;;;;;;;;;;20.80;66.20;;;;;;5052128;28;19932;-69
2023/06/24 08:25:16;;;;;;;;;;;20.80;65.80;;;;;;5055329;28;19932;-69
2023/06/24 08:27:46;;;;;;;;;;;20.80;65.80;;;;;;5056384;28;19944;-69
2023/06/24 08:30:13;;;;;;;;;;;20.90;66.00;;;;;;5057914;28;20041;-69
2023/06/24 08:32:40;;;;;;;;;;;20.90;66.10;;;;;;5055933;28;19990;-69
2023/06/24 08:35:07;;;;;;;;;;;21.00;66.10;;;;;;5054735;28;19936;-67
2023/06/24 08:37:33;;;;;;;;;;;21.00;65.90;;;;;;5059840;28;19936;-69
2023/06/24 08:40:00;;;;;;;;;;;21.00;65.80;;;;;;5057832;28;19929;-69
2023/06/24 08:42:28;;;;;;;;;;;21.10;65.50;;;;;;5052826;28;19929;-70
2023/06/24 08:44:54;;;;;;;;;;;21.10;65.30;;;;;;5056561;28;20356;-69
2023/06/24 08:47:21;;;;;;;;;;;21.20;65.40;;;;;;5061193;28;19928;-69
2023/06/24 08:49:48;;;;;;;;;;;21.20;65.10;;;;;;5056123;28;19994;-70
2023/06/24 08:52:16;;;;;;;;;;;21.30;65.10;;;;;;5057095;28;19929;-70
2023/06/24 08:54:45;;;;;;;;;;;21.30;65.00;;;;;;5057264;28;20525;-69
2023/06/24 08:57:14;;;;;;;;;;;21.30;64.80;;;;;;5059136;28;20007;-70
2023/06/24 08:59:42;;;;;;;;;;;21.40;64.60;;;;;;5052734;28;19971;-69
2023/06/24 09:02:10;;;;;;;;;;;21.40;64.50;;;;;;5061046;28;19936;-69
2023/06/24 09:04:37;;;;;;;;;;;21.50;64.30;;;;;;5061569;28;20039;-69
2023/06/24 09:07:04;;;;;;;;;;;21.50;63.80;;;;;;5054683;28;19929;-69
2023/06/24 09:09:31;;;;;;;;;;;21.50;63.70;;;;;;5056796;28;20019;-69
2023/06/24 09:11:58;;;;;;;;;;;21.60;63.30;;;;;;5059000;28;19932;-70
2023/06/24 09:14:25;;;;;;;;;;;21.60;62.60;;;;;;5062101;28;19936;-69
2023/06/24 09:16:53;;;;;;;;;;;21.60;62.40;;;;;;5049386;28;19929;-69
2023/06/24 09:19:23;;;;;;;;;;;21.70;62.50;;;;;;5057267;28;19950;-69
2023/06/24 09:21:51;;;;;;;;;;;21.70;62.40;;;;;;5051019;28;19928;-70
2023/06/24 09:24:18;;;;;;;;;;;21.80;62.50;;;;;;5061902;28;19940;-69
2023/06/24 09:26:45;;;;;;;;;;;21.90;62.50;;;;;;5055650;28;19936;-69
2023/06/24 09:29:12;;;;;;;;;;;21.90;62.40;;;;;;5054783;28;20024;-69
2023/06/24 09:31:46;;;;;;;;;;;22.00;62.10;;;;;;5050954;28;19928;-70
2023/06/24 09:34:14;;;;;;;;;;;22.00;62.00;;;;;;5056696;28;19935;-69
2023/06/24 09:36:42;;;;;;;;;;;22.10;61.20;;;;;;5055000;28;20479;-70
2023/06/24 09:39:09;;;;;;;;;;;22.10;61.10;;;;;;5056479;28;19932;-69
2023/06/24 09:41:36;;;;;;;;;;;22.20;60.90;;;;;;5060212;28;20477;-69
2023/06/24 09:44:02;;;;;;;;;;;22.20;60.20;;;;;;5051843;28;20719;-69
2023/06/24 09:46:30;;;;;;;;;;;22.30;60.40;;;;;;5054932;28;19929;-70
2023/06/24 09:48:56;;;;;;;;;;;22.40;60.00;;;;;;5052380;28;19943;-69
2023/06/24 09:51:24;;;;;;;;;;;22.40;59.90;;;;;;5061451;28;19928;-70
2023/06/24 09:53:53;;;;;;;;;;;22.50;59.80;;;;;;5057000;28;19928;-69
2023/06/24 09:56:20;;;;;;;;;;;22.60;59.20;;;;;;5056308;28;20036;-69
2023/06/24 09:58:47;;;;;;;;;;;22.60;59.10;;;;;;5059687;28;20669;-70
2023/06/24 10:01:16;;;;;;;;;;;22.70;58.90;;;;;;5052758;28;19999;-70
2023/06/24 10:03:43;;;;;;;;;;;22.80;58.70;;;;;;5060648;28;20433;-70
2023/06/24 10:06:10;;;;;;;;;;;22.80;58.40;;;;;;5052796;28;20006;-69
2023/06/24 10:08:38;;;;;;;;;;;23.00;58.40;;;;;;5059547;28;19940;-69
2023/06/24 10:11:04;;;;;;;;;;;23.00;58.20;;;;;;5049254;28;19936;-70
2023/06/24 10:13:31;;;;;;;;;;;23.10;58.00;;;;;;5059865;28;20465;-70
2023/06/24 10:15:58;;;;;;;;;;;23.20;57.90;;;;;;5056519;28;19928;-71
2023/06/24 10:18:34;;;;;;;;;;;23.30;57.90;;;;;;5057212;28;20595;-69
2023/06/24 10:21:01;;;;;;;;;;;23.30;57.60;;;;;;5052993;28;19932;-70
2023/06/24 10:23:30;;;;;;;;;;;23.40;56.30;;;;;;5053359;28;19936;-70
2023/06/24 10:25:58;;;;;;;;;;;23.50;56.20;;;;;;5057785;28;19929;-70
2023/06/24 10:28:25;;;;;;;;;;;23.50;56.30;;;;;;5055465;28;20327;-70
2023/06/24 10:30:55;;;;;;;;;;;23.60;56.20;;;;;;5054658;28;19924;-71
2023/06/24 10:33:21;;;;;;;;;;;23.70;56.20;;;;;;5058748;28;19932;-70
2023/06/24 10:35:48;;;;;;;;;;;23.80;56.00;;;;;;5053057;28;20806;-70
2023/06/24 10:38:14;;;;;;;;;;;23.80;55.90;;;;;;5060795;28;19939;-70
2023/06/24 10:40:43;;;;;;;;;;;23.90;55.80;;;;;;5054535;28;20453;-70
2023/06/24 10:43:30;;;;;;;;;;;24.00;55.70;;;;;;5058087;28;19928;-69
2023/06/24 10:45:57;;;;;;;;;;;24.10;55.40;;;;;;5047041;28;20041;-70
2023/06/24 10:48:24;;;;;;;;;;;24.10;55.90;;;;;;5051333;28;20407;-70
2023/06/24 10:50:50;;;;;;;;;;;24.20;55.10;;;;;;5048745;28;20386;-69
2023/06/24 10:53:19;;;;;;;;;;;24.30;54.90;;;;;;5060295;28;19928;-70
2023/06/24 10:55:46;;;;;;;;;;;24.30;54.70;;;;;;5050466;28;19929;-69
2023/06/24 10:58:14;;;;;;;;;;;24.40;54.70;;;;;;5057600;28;20202;-70
2023/06/24 11:00:43;;;;;;;;;;;24.50;54.60;;;;;;5059160;28;19928;-70
2023/06/24 11:03:09;;;;;;;;;;;24.60;54.40;;;;;;5056580;28;20015;-70
2023/06/24 11:05:38;;;;;;;;;;;24.70;54.10;;;;;;5056497;28;20017;-70
2023/06/24 11:08:05;;;;;;;;;;;24.80;54.00;;;;;;5055849;28;19929;-70
2023/06/24 11:10:32;;;;;;;;;;;24.80;53.90;;;;;;5055285;28;19935;-70
2023/06/24 11:13:05;;;;;;;;;;;24.90;53.70;;;;;;5060906;28;19944;-70
2023/06/24 11:15:33;;;;;;;;;;;24.90;53.60;;;;;;5056617;28;20010;-70
2023/06/24 11:18:03;;;;;;;;;;;25.00;53.60;;;;;;5055145;28;19929;-70
2023/06/24 11:20:29;;;;;;;;;;;25.10;52.60;;;;;;5050028;28;19928;-70
2023/06/24 11:22:56;;;;;;;;;;;25.10;52.30;;;;;;5049504;28;20318;-69
2023/06/24 11:25:23;;;;;;;;;;;25.20;52.20;;;;;;5047189;28;19929;-70
2023/06/24 11:27:51;;;;;;;;;;;25.20;51.90;;;;;;5057186;28;19929;-70
2023/06/24 11:30:17;;;;;;;;;;;25.30;51.80;;;;;;5056504;28;19928;-71
2023/06/24 11:32:45;;;;;;;;;;;25.40;51.80;;;;;;5055527;28;19935;-70
2023/06/24 11:35:14;;;;;;;;;;;25.50;51.70;;;;;;5049570;28;19929;-70
2023/06/24 11:37:42;;;;;;;;;;;25.50;51.30;;;;;;5050416;28;20654;-70
2023/06/24 11:40:09;;;;;;;;;;;25.60;51.40;;;;;;5051686;28;19968;-70
2023/06/24 11:42:36;;;;;;;;;;;25.60;51.40;;;;;;5048352;28;19932;-70
2023/06/24 11:45:03;;;;;;;;;;;25.70;51.30;;;;;;5058627;28;20398;-70
2023/06/24 11:47:32;;;;;;;;;;;25.80;50.90;;;;;;5049707;28;19935;-70
2023/06/24 11:50:00;;;;;;;;;;;25.90;50.70;;;;;;5057810;28;19932;-71
2023/06/24 11:52:48;;;;;;;;;;;25.90;50.40;;;;;;5054367;28;20023;-70
2023/06/24 11:55:20;;;;;;;;;;;26.00;49.90;;;;;;5052797;28;19928;-70
2023/06/24 11:57:53;;;;;;;;;;;26.00;50.00;;;;;;5063782;28;19929;-70
2023/06/24 12:00:20;;;;;;;;;;;26.10;49.90;;;;;;5050611;28;20561;-69
2023/06/24 12:02:49;;;;;;;;;;;26.20;50.00;;;;;;5060094;28;19928;-70
2023/06/24 12:05:25;;;;;;;;;;;26.20;49.80;;;;;;5059107;28;19936;-70
2023/06/24 12:07:52;;;;;;;;;;;26.30;50.10;;;;;;5061110;28;19928;-71
2023/06/24 12:10:20;;;;;;;;;;;26.40;49.40;;;;;;5057846;28;19935;-70
2023/06/24 12:12:47;;;;;;;;;;;26.40;49.00;;;;;;5053411;28;19939;-70
2023/06/24 12:15:13;;;;;;;;;;;26.50;48.10;;;;;;5054187;28;19932;-70
2023/06/24 12:17:40;;;;;;;;;;;26.50;46.30;;;;;;5056991;28;20043;-70
2023/06/24 12:20:07;;;;;;;;;;;26.60;47.30;;;;;;5054328;28;19928;-71
2023/06/24 12:22:34;;;;;;;;;;;26.70;47.80;;;;;;5060731;28;19941;-70
2023/06/24 12:25:00;;;;;;;;;;;26.70;47.40;;;;;;5049910;28;20413;-70
2023/06/24 12:27:28;;;;;;;;;;;26.70;47.60;;;;;;5054677;28;19932;-70
2023/06/24 12:29:54;;;;;;;;;;;26.80;47.70;;;;;;5059629;28;20061;-70
2023/06/24 12:32:21;;;;;;;;;;;26.90;47.70;;;;;;5054919;28;19933;-70
2023/06/24 12:34:48;;;;;;;;;;;26.90;47.50;;;;;;5052537;28;20429;-69
2023/06/24 12:37:14;;;;;;;;;;;27.00;47.60;;;;;;5057250;28;20421;-70
2023/06/24 12:39:41;;;;;;;;;;;27.00;47.60;;;;;;5058303;28;19929;-71
2023/06/24 12:42:07;;;;;;;;;;;27.10;47.70;;;;;;5060906;28;19936;-71
2023/06/24 12:44:35;;;;;;;;;;;27.20;47.30;;;;;;5060933;28;19982;-70
2023/06/24 12:47:02;;;;;;;;;;;27.20;47.50;;;;;;5054624;28;20364;-70
2023/06/24 12:49:29;;;;;;;;;;;27.30;47.50;;;;;;5059856;28;19929;-71
2023/06/24 12:51:55;;;;;;;;;;;27.30;46.90;;;;;;5052834;28;19981;-70
2023/06/24 12:54:22;;;;;;;;;;;27.40;46.90;;;;;;5056084;28;19940;-70
2023/06/24 12:56:48;;;;;;;;;;;27.40;47.20;;;;;;5061468;28;19928;-70
2023/06/24 12:59:15;;;;;;;;;;;27.40;47.20;;;;;;5060191;28;20468;-70
2023/06/24 13:01:44;;;;;;;;;;;27.50;46.90;;;;;;5057913;28;19932;-70
2023/06/24 13:04:11;;;;;;;;;;;27.50;46.70;;;;;;5060095;28;20496;-71
2023/06/24 13:06:37;;;;;;;;;;;27.60;46.80;;;;;;5052454;28;19964;-70
2023/06/24 13:09:04;;;;;;;;;;;27.70;46.70;;;;;;5059883;28;19928;-71
2023/06/24 13:11:30;;;;;;;;;;;27.70;46.80;;;;;;5058582;28;20629;-70
2023/06/24 13:13:58;;;;;;;;;;;27.70;46.00;;;;;;5055021;28;19928;-71
2023/06/24 13:16:24;;;;;;;;;;;27.80;45.90;;;;;;5060836;28;19932;-70
2023/06/24 13:18:52;;;;;;;;;;;27.80;45.50;;;;;;5052985;28;20012;-72
2023/06/24 13:21:19;;;;;;;;;;;27.90;46.00;;;;;;5058251;28;19933;-70
2023/06/24 13:23:46;;;;;;;;;;;28.00;46.40;;;;;;5053898;28;19936;-70
2023/06/24 13:26:12;;;;;;;;;;;28.00;46.00;;;;;;5056400;28;19928;-70
2023/06/24 13:28:39;;;;;;;;;;;28.00;45.40;;;;;;5056306;28;19933;-71
2023/06/24 13:31:05;;;;;;;;;;;28.10;45.00;;;;;;5052266;28;19928;-70
2023/06/24 13:33:32;;;;;;;;;;;28.20;44.90;;;;;;5057136;28;19928;-71
2023/06/24 13:36:00;;;;;;;;;;;28.20;45.50;;;;;;5053125;28;19958;-71
2023/06/24 13:38:26;;;;;;;;;;;28.30;44.90;;;;;;5055005;28;19936;-70
2023/06/24 13:40:53;;;;;;;;;;;28.30;44.40;;;;;;5051909;28;19936;-70
2023/06/24 13:43:20;;;;;;;;;;;28.40;45.30;;;;;;5058920;28;20471;-70
2023/06/24 13:45:46;;;;;;;;;;;28.40;44.80;;;;;;5056798;28;19935;-70
2023/06/24 13:48:13;;;;;;;;;;;28.50;44.70;;;;;;5054388;28;19929;-70
2023/06/24 13:50:39;;;;;;;;;;;28.60;45.00;;;;;;5045158;28;19982;-70
2023/06/24 13:53:07;;;;;;;;;;;28.60;44.80;;;;;;5054289;28;19935;-70
2023/06/24 13:55:36;;;;;;;;;;;28.70;44.70;;;;;;5044476;28;19929;-71
2023/06/24 13:58:02;;;;;;;;;;;28.70;44.50;;;;;;5060807;28;19924;-70
2023/06/24 14:00:29;;;;;;;;;;;28.80;44.20;;;;;;5054583;28;19925;-71
2023/06/24 14:02:55;;;;;;;;;;;28.80;44.40;;;;;;5056447;28;20738;-71
2023/06/24 14:05:22;;;;;;;;;;;28.80;44.10;;;;;;5058759;28;19954;-70
2023/06/24 14:07:48;;;;;;;;;;;28.90;44.60;;;;;;5048987;28;19924;-71
2023/06/24 14:10:16;;;;;;;;;;;29.00;44.60;;;;;;5057251;28;19924;-69
2023/06/24 14:12:43;;;;;;;;;;;29.00;44.20;;;;;;5050856;28;19932;-69
2023/06/24 14:15:10;;;;;;;;;;;29.10;44.20;;;;;;5052911;28;19925;-71
2023/06/24 14:17:36;;;;;;;;;;;29.10;44.40;;;;;;5051845;28;19924;-70